Share

Burwell, NE

Sargent (KNESARGE4) Elev 2314 ft | 41.64 °N, 99.38 °W | Change Station

Current weather conditions updated 9 minutes ago

Clear
Clear
66.7 °F
Feels Like 66.7 °F
N
8.0
Wind Variable Wind from South
Gusts 15.0 mph
Sunrise 6:51 AM
Sunset 8:20 PM
Moon Waning Gibbous

Tomorrow is forecast to be nearly the same temperature as today.

Pressure 29.91 in
Visibility 10.0 miles
Clouds Clear
Dew Point 43 °F
Humidity 42%
Rainfall 0.00 in
Snow Depth Not available.
UV 0 out of 16
Pollen 11.40 out of 12
Air Quality Not available.
Flu Activity Sporadic
METAR KBBW 190053Z AUTO 17014KT 10SM CLR 18/06 A2991 RMK AO2 PK WND 17033/0018 SLP126 T01830061

More Conditions Fewer Conditions

Pressure 29.91 in
Visibility 10.0 miles
Clouds Clear
Dew Point 43 °F
Humidity 42%
Rainfall 0.00 in
Snow Depth Not available.
UV 0 out of 16
Pollen 11.40 out of 12
Air Quality Not available.
Flu Activity Sporadic
METAR KBBW 190053Z AUTO 17014KT 10SM CLR 18/06 A2991 RMK AO2 PK WND 17033/0018 SLP126 T01830061

More Conditions Fewer Conditions

10-Day Weather Forecast

Almanac

Astronomy

Apr. 18, 2014 Rise Set
Actual Time 6:51 AM CDT 8:20 PM CDT
Civil Twilight 6:22 AM CDT 8:49 PM CDT
Nautical Twilight 5:47 AM CDT 9:25 PM CDT
Astronomical Twilight 5:10 AM CDT 10:02 PM CDT
Moon No Moon Rise 9:13 AM CDT (4/18)
Length of Visible Light 14h 27m
Length of Day
13h 29m
Tomorrow will be 2m 39s longer.
Waning Gibbous, 84% of the Moon is Illuminated
Today
Waning Gibbous
Apr 22
Last Quarter
Apr 29
New
May 6
First Quarter
May 14
Full

Today's Extremes

State Highs State Lows

Community

  • Cloudy spring view
    Cloudy spring view
  • Old barn
    Old barn
  • What's for Lunch?
    What's for Lunch?
  • SUNRISE THROUGH THE TREES.
    SUNRISE THROUGH THE TREES.
  • Dog Wood Blossoms
    Dog Wood Blossoms

WunderPhotos

Upload Photos

1,702,562 photos uploaded!

WunderBlogs® & News

Nearby

Snow Depth

Station Depth Elevation
No new snow has been reported.

Coastal Water Temperatures

Place Temperature
No Stations Reporting

Earthquake Activity

City Distance Mag. Time & Date
No recent earthquake activity has been reported nearby.
Minimum magnitude displayed is 2.5.

Nearby Weather Stations

Station Location Temp. Dew Point Humidity Wind Precip. Elev Updated Type
Sargent, Sargent, NE 66.7 °F 43 °F 42% South  at  8.0 mph 0.00 in / hr 2314 ft 7:55 PM CDT Normal

Show More Stations Show Fewer Stations

What do you think?

We're not finished. Please let us know what you like, what you don't like, and what you are still missing.